sensor_id;sensor_type;location;lat;lon;timestamp;P1;durP1;ratioP1;P2;durP2;ratioP2
5121;SDS011;2563;52.242;7.956;2022-11-04T00:01:26;7.27;;;3.50;;
5121;SDS011;2563;52.242;7.956;2022-11-04T00:03:52;6.57;;;3.47;;
5121;SDS011;2563;52.242;7.956;2022-11-04T00:06:17;7.27;;;3.13;;
5121;SDS011;2563;52.242;7.956;2022-11-04T00:08:47;6.67;;;3.50;;
5121;SDS011;2563;52.242;7.956;2022-11-04T00:11:14;5.83;;;3.10;;
5121;SDS011;2563;52.242;7.956;2022-11-04T00:13:58;7.10;;;3.40;;
5121;SDS011;2563;52.242;7.956;2022-11-04T00:16:23;8.27;;;3.80;;
5121;SDS011;2563;52.242;7.956;2022-11-04T00:19:07;7.43;;;2.93;;
5121;SDS011;2563;52.242;7.956;2022-11-04T00:21:33;7.37;;;3.73;;
5121;SDS011;2563;52.242;7.956;2022-11-04T00:24:17;6.83;;;3.60;;
5121;SDS011;2563;52.242;7.956;2022-11-04T00:27:01;8.90;;;3.57;;
5121;SDS011;2563;52.242;7.956;2022-11-04T00:29:45;7.17;;;3.87;;
5121;SDS011;2563;52.242;7.956;2022-11-04T00:32:10;8.80;;;3.70;;
5121;SDS011;2563;52.242;7.956;2022-11-04T00:34:54;7.80;;;3.77;;
5121;SDS011;2563;52.242;7.956;2022-11-04T00:37:20;11.60;;;4.00;;
5121;SDS011;2563;52.242;7.956;2022-11-04T00:39:45;7.10;;;3.50;;
5121;SDS011;2563;52.242;7.956;2022-11-04T00:42:10;10.83;;;4.50;;
5121;SDS011;2563;52.242;7.956;2022-11-04T00:44:36;8.00;;;3.83;;
5121;SDS011;2563;52.242;7.956;2022-11-04T00:47:01;5.00;;;2.73;;
5121;SDS011;2563;52.242;7.956;2022-11-04T00:49:26;5.30;;;2.20;;
5121;SDS011;2563;52.242;7.956;2022-11-04T00:51:52;3.70;;;1.90;;
5121;SDS011;2563;52.242;7.956;2022-11-04T00:54:17;5.23;;;2.40;;
5121;SDS011;2563;52.242;7.956;2022-11-04T00:56:42;3.73;;;1.70;;
5121;SDS011;2563;52.242;7.956;2022-11-04T00:59:08;3.63;;;1.80;;
5121;SDS011;2563;52.242;7.956;2022-11-04T01:01:34;5.17;;;1.70;;
5121;SDS011;2563;52.242;7.956;2022-11-04T01:04:00;4.17;;;1.63;;
5121;SDS011;2563;52.242;7.956;2022-11-04T01:06:25;3.80;;;1.40;;
5121;SDS011;2563;52.242;7.956;2022-11-04T01:08:55;5.13;;;1.90;;
5121;SDS011;2563;52.242;7.956;2022-11-04T01:11:21;3.47;;;1.77;;
5121;SDS011;2563;52.242;7.956;2022-11-04T01:13:48;5.70;;;1.57;;
5121;SDS011;2563;52.242;7.956;2022-11-04T01:16:15;3.77;;;1.27;;
5121;SDS011;2563;52.242;7.956;2022-11-04T01:18:41;4.70;;;1.47;;
5121;SDS011;2563;52.242;7.956;2022-11-04T01:21:07;3.40;;;1.60;;
5121;SDS011;2563;52.242;7.956;2022-11-04T01:23:34;3.67;;;1.33;;
5121;SDS011;2563;52.242;7.956;2022-11-04T01:26:00;3.77;;;1.57;;
5121;SDS011;2563;52.242;7.956;2022-11-04T01:28:29;3.00;;;1.27;;
5121;SDS011;2563;52.242;7.956;2022-11-04T01:30:54;3.40;;;1.40;;
5121;SDS011;2563;52.242;7.956;2022-11-04T01:33:19;7.03;;;1.47;;
5121;SDS011;2563;52.242;7.956;2022-11-04T01:35:45;3.87;;;1.40;;
5121;SDS011;2563;52.242;7.956;2022-11-04T01:38:10;5.33;;;1.30;;
5121;SDS011;2563;52.242;7.956;2022-11-04T01:40:36;4.83;;;1.20;;
5121;SDS011;2563;52.242;7.956;2022-11-04T01:43:03;4.53;;;1.30;;
5121;SDS011;2563;52.242;7.956;2022-11-04T01:45:28;3.53;;;1.30;;
5121;SDS011;2563;52.242;7.956;2022-11-04T01:48:00;3.73;;;1.40;;
5121;SDS011;2563;52.242;7.956;2022-11-04T01:50:29;3.50;;;1.57;;
5121;SDS011;2563;52.242;7.956;2022-11-04T01:53:05;2.93;;;1.03;;
5121;SDS011;2563;52.242;7.956;2022-11-04T01:55:38;4.37;;;1.43;;
5121;SDS011;2563;52.242;7.956;2022-11-04T01:58:10;4.30;;;1.70;;
5121;SDS011;2563;52.242;7.956;2022-11-04T02:00:39;4.43;;;2.07;;
5121;SDS011;2563;52.242;7.956;2022-11-04T02:03:07;4.40;;;1.87;;
5121;SDS011;2563;52.242;7.956;2022-11-04T02:05:39;6.10;;;2.10;;
5121;SDS011;2563;52.242;7.956;2022-11-04T02:08:06;4.73;;;2.23;;
5121;SDS011;2563;52.242;7.956;2022-11-04T02:10:33;4.60;;;2.30;;
5121;SDS011;2563;52.242;7.956;2022-11-04T02:13:00;5.17;;;2.87;;
5121;SDS011;2563;52.242;7.956;2022-11-04T02:15:40;5.00;;;2.83;;
5121;SDS011;2563;52.242;7.956;2022-11-04T02:24:03;6.23;;;3.07;;
5121;SDS011;2563;52.242;7.956;2022-11-04T02:32:05;8.30;;;4.10;;
5121;SDS011;2563;52.242;7.956;2022-11-04T02:37:12;6.80;;;4.00;;
5121;SDS011;2563;52.242;7.956;2022-11-04T02:42:44;7.00;;;4.03;;
5121;SDS011;2563;52.242;7.956;2022-11-04T02:45:59;7.60;;;3.90;;
5121;SDS011;2563;52.242;7.956;2022-11-04T02:48:08;7.10;;;4.10;;
5121;SDS011;2563;52.242;7.956;2022-11-04T02:51:03;7.67;;;4.20;;
5121;SDS011;2563;52.242;7.956;2022-11-04T02:56:34;10.23;;;4.40;;
5121;SDS011;2563;52.242;7.956;2022-11-04T02:59:06;10.37;;;5.20;;
5121;SDS011;2563;52.242;7.956;2022-11-04T03:01:38;7.37;;;4.30;;
5121;SDS011;2563;52.242;7.956;2022-11-04T03:04:13;9.73;;;4.90;;
5121;SDS011;2563;52.242;7.956;2022-11-04T03:06:42;12.93;;;4.70;;
5121;SDS011;2563;52.242;7.956;2022-11-04T03:09:12;8.07;;;4.50;;
5121;SDS011;2563;52.242;7.956;2022-11-04T03:11:40;7.13;;;4.37;;
5121;SDS011;2563;52.242;7.956;2022-11-04T03:14:12;6.90;;;3.90;;
5121;SDS011;2563;52.242;7.956;2022-11-04T03:16:52;6.90;;;3.83;;
5121;SDS011;2563;52.242;7.956;2022-11-04T03:19:45;8.30;;;4.40;;
5121;SDS011;2563;52.242;7.956;2022-11-04T03:22:19;6.50;;;4.10;;
5121;SDS011;2563;52.242;7.956;2022-11-04T03:24:46;7.73;;;4.50;;
5121;SDS011;2563;52.242;7.956;2022-11-04T03:27:24;7.03;;;4.07;;
5121;SDS011;2563;52.242;7.956;2022-11-04T03:32:38;8.70;;;4.50;;
5121;SDS011;2563;52.242;7.956;2022-11-04T03:35:05;6.97;;;4.67;;
5121;SDS011;2563;52.242;7.956;2022-11-04T03:37:32;7.50;;;4.20;;
5121;SDS011;2563;52.242;7.956;2022-11-04T03:39:58;8.53;;;4.80;;
5121;SDS011;2563;52.242;7.956;2022-11-04T03:42:23;9.90;;;5.40;;
5121;SDS011;2563;52.242;7.956;2022-11-04T03:44:52;8.60;;;5.10;;
5121;SDS011;2563;52.242;7.956;2022-11-04T03:47:20;8.00;;;5.00;;
5121;SDS011;2563;52.242;7.956;2022-11-04T03:49:48;9.37;;;5.63;;
5121;SDS011;2563;52.242;7.956;2022-11-04T03:52:16;10.70;;;6.67;;
5121;SDS011;2563;52.242;7.956;2022-11-04T03:54:43;9.37;;;5.40;;
5121;SDS011;2563;52.242;7.956;2022-11-04T04:04:58;10.10;;;5.80;;
5121;SDS011;2563;52.242;7.956;2022-11-04T04:10:11;10.17;;;5.57;;
5121;SDS011;2563;52.242;7.956;2022-11-04T04:13:00;10.37;;;5.90;;
5121;SDS011;2563;52.242;7.956;2022-11-04T04:15:32;10.60;;;6.20;;
5121;SDS011;2563;52.242;7.956;2022-11-04T04:18:06;11.87;;;6.33;;
5121;SDS011;2563;52.242;7.956;2022-11-04T04:20:37;12.30;;;6.20;;
5121;SDS011;2563;52.242;7.956;2022-11-04T04:23:05;11.33;;;7.00;;
5121;SDS011;2563;52.242;7.956;2022-11-04T04:25:54;14.47;;;7.60;;
5121;SDS011;2563;52.242;7.956;2022-11-04T04:28:42;12.83;;;6.90;;
5121;SDS011;2563;52.242;7.956;2022-11-04T04:31:09;11.87;;;7.40;;
5121;SDS011;2563;52.242;7.956;2022-11-04T04:33:38;17.63;;;7.83;;
5121;SDS011;2563;52.242;7.956;2022-11-04T04:36:03;13.40;;;7.37;;
5121;SDS011;2563;52.242;7.956;2022-11-04T04:38:33;13.20;;;7.30;;
5121;SDS011;2563;52.242;7.956;2022-11-04T04:41:29;11.87;;;6.57;;
5121;SDS011;2563;52.242;7.956;2022-11-04T04:44:25;12.63;;;6.90;;
5121;SDS011;2563;52.242;7.956;2022-11-04T04:47:21;13.70;;;7.00;;
5121;SDS011;2563;52.242;7.956;2022-11-04T04:49:49;13.23;;;7.30;;
5121;SDS011;2563;52.242;7.956;2022-11-04T04:52:15;11.97;;;6.47;;
5121;SDS011;2563;52.242;7.956;2022-11-04T04:54:40;11.83;;;7.00;;
5121;SDS011;2563;52.242;7.956;2022-11-04T04:57:05;11.60;;;6.70;;
5121;SDS011;2563;52.242;7.956;2022-11-04T04:59:31;11.63;;;6.50;;
5121;SDS011;2563;52.242;7.956;2022-11-04T05:01:56;11.10;;;6.20;;
5121;SDS011;2563;52.242;7.956;2022-11-04T05:04:21;11.50;;;6.87;;
5121;SDS011;2563;52.242;7.956;2022-11-04T05:06:46;12.47;;;6.40;;
5121;SDS011;2563;52.242;7.956;2022-11-04T05:09:12;13.40;;;6.83;;
5121;SDS011;2563;52.242;7.956;2022-11-04T05:11:37;11.10;;;6.30;;
5121;SDS011;2563;52.242;7.956;2022-11-04T05:14:02;11.83;;;6.63;;
5121;SDS011;2563;52.242;7.956;2022-11-04T05:16:28;11.33;;;5.93;;
5121;SDS011;2563;52.242;7.956;2022-11-04T05:18:53;11.70;;;6.10;;
5121;SDS011;2563;52.242;7.956;2022-11-04T05:21:18;14.07;;;7.10;;
5121;SDS011;2563;52.242;7.956;2022-11-04T05:23:44;16.27;;;6.83;;
5121;SDS011;2563;52.242;7.956;2022-11-04T05:26:09;11.80;;;6.90;;
5121;SDS011;2563;52.242;7.956;2022-11-04T05:28:34;12.90;;;6.57;;
5121;SDS011;2563;52.242;7.956;2022-11-04T05:31:03;12.40;;;5.80;;
5121;SDS011;2563;52.242;7.956;2022-11-04T05:33:30;13.77;;;6.90;;
5121;SDS011;2563;52.242;7.956;2022-11-04T05:36:04;15.63;;;6.70;;
5121;SDS011;2563;52.242;7.956;2022-11-04T05:38:37;11.43;;;6.63;;
5121;SDS011;2563;52.242;7.956;2022-11-04T05:41:04;10.40;;;5.63;;
5121;SDS011;2563;52.242;7.956;2022-11-04T05:43:30;10.87;;;6.23;;
5121;SDS011;2563;52.242;7.956;2022-11-04T05:45:59;12.20;;;6.90;;
5121;SDS011;2563;52.242;7.956;2022-11-04T05:48:25;9.80;;;5.80;;
5121;SDS011;2563;52.242;7.956;2022-11-04T05:50:50;13.47;;;6.37;;
5121;SDS011;2563;52.242;7.956;2022-11-04T05:53:16;14.47;;;7.23;;
5121;SDS011;2563;52.242;7.956;2022-11-04T05:55:41;12.83;;;6.63;;
5121;SDS011;2563;52.242;7.956;2022-11-04T05:58:06;16.50;;;6.60;;
5121;SDS011;2563;52.242;7.956;2022-11-04T06:00:32;17.03;;;7.00;;
5121;SDS011;2563;52.242;7.956;2022-11-04T06:02:57;14.13;;;6.70;;
5121;SDS011;2563;52.242;7.956;2022-11-04T06:05:23;16.00;;;7.40;;
5121;SDS011;2563;52.242;7.956;2022-11-04T06:07:49;12.57;;;5.90;;
5121;SDS011;2563;52.242;7.956;2022-11-04T06:10:14;12.40;;;6.40;;
5121;SDS011;2563;52.242;7.956;2022-11-04T06:12:40;11.77;;;6.50;;
5121;SDS011;2563;52.242;7.956;2022-11-04T06:15:05;12.37;;;6.43;;
5121;SDS011;2563;52.242;7.956;2022-11-04T06:17:31;11.73;;;6.10;;
5121;SDS011;2563;52.242;7.956;2022-11-04T06:19:56;12.13;;;6.13;;
5121;SDS011;2563;52.242;7.956;2022-11-04T06:22:21;9.80;;;5.80;;
5121;SDS011;2563;52.242;7.956;2022-11-04T06:24:47;10.77;;;5.60;;
5121;SDS011;2563;52.242;7.956;2022-11-04T06:27:12;12.00;;;5.97;;
5121;SDS011;2563;52.242;7.956;2022-11-04T06:29:38;11.23;;;6.00;;
5121;SDS011;2563;52.242;7.956;2022-11-04T06:32:05;11.20;;;6.07;;
5121;SDS011;2563;52.242;7.956;2022-11-04T06:34:35;12.40;;;5.90;;
5121;SDS011;2563;52.242;7.956;2022-11-04T06:37:01;14.47;;;6.47;;
5121;SDS011;2563;52.242;7.956;2022-11-04T06:39:26;17.33;;;7.23;;
5121;SDS011;2563;52.242;7.956;2022-11-04T06:41:52;13.53;;;6.40;;
5121;SDS011;2563;52.242;7.956;2022-11-04T06:44:17;12.83;;;6.37;;
5121;SDS011;2563;52.242;7.956;2022-11-04T06:46:43;12.13;;;6.20;;
5121;SDS011;2563;52.242;7.956;2022-11-04T06:49:09;12.53;;;5.50;;
5121;SDS011;2563;52.242;7.956;2022-11-04T06:51:40;13.17;;;6.70;;
5121;SDS011;2563;52.242;7.956;2022-11-04T06:54:05;22.77;;;6.90;;
5121;SDS011;2563;52.242;7.956;2022-11-04T06:56:31;13.30;;;5.37;;
5121;SDS011;2563;52.242;7.956;2022-11-04T06:58:57;11.93;;;5.80;;
5121;SDS011;2563;52.242;7.956;2022-11-04T07:01:23;15.73;;;6.43;;
5121;SDS011;2563;52.242;7.956;2022-11-04T07:03:51;12.87;;;6.10;;
5121;SDS011;2563;52.242;7.956;2022-11-04T07:06:18;11.93;;;6.00;;
5121;SDS011;2563;52.242;7.956;2022-11-04T07:08:44;13.00;;;5.90;;
5121;SDS011;2563;52.242;7.956;2022-11-04T07:11:10;10.23;;;5.80;;
5121;SDS011;2563;52.242;7.956;2022-11-04T07:13:35;12.67;;;6.60;;
5121;SDS011;2563;52.242;7.956;2022-11-04T07:16:03;19.13;;;6.73;;
5121;SDS011;2563;52.242;7.956;2022-11-04T07:18:30;24.17;;;5.80;;
5121;SDS011;2563;52.242;7.956;2022-11-04T07:20:56;13.20;;;5.70;;
5121;SDS011;2563;52.242;7.956;2022-11-04T07:23:22;10.90;;;5.97;;
5121;SDS011;2563;52.242;7.956;2022-11-04T07:25:47;13.00;;;6.30;;
5121;SDS011;2563;52.242;7.956;2022-11-04T07:28:12;13.33;;;6.47;;
5121;SDS011;2563;52.242;7.956;2022-11-04T07:30:38;11.27;;;6.00;;
5121;SDS011;2563;52.242;7.956;2022-11-04T07:33:03;12.93;;;6.33;;
5121;SDS011;2563;52.242;7.956;2022-11-04T07:35:29;11.63;;;5.63;;
5121;SDS011;2563;52.242;7.956;2022-11-04T07:37:54;11.83;;;6.03;;
5121;SDS011;2563;52.242;7.956;2022-11-04T07:40:19;15.57;;;6.93;;
5121;SDS011;2563;52.242;7.956;2022-11-04T07:42:45;13.13;;;6.23;;
5121;SDS011;2563;52.242;7.956;2022-11-04T07:45:10;11.83;;;6.07;;
5121;SDS011;2563;52.242;7.956;2022-11-04T07:47:35;14.37;;;6.30;;
5121;SDS011;2563;52.242;7.956;2022-11-04T07:50:01;14.70;;;6.20;;
5121;SDS011;2563;52.242;7.956;2022-11-04T07:52:26;12.57;;;5.60;;
5121;SDS011;2563;52.242;7.956;2022-11-04T07:54:51;12.60;;;6.07;;
5121;SDS011;2563;52.242;7.956;2022-11-04T07:57:17;10.53;;;5.40;;
5121;SDS011;2563;52.242;7.956;2022-11-04T07:59:42;14.03;;;5.80;;
5121;SDS011;2563;52.242;7.956;2022-11-04T08:02:08;16.30;;;7.20;;
5121;SDS011;2563;52.242;7.956;2022-11-04T08:04:34;11.93;;;5.67;;
5121;SDS011;2563;52.242;7.956;2022-11-04T08:06:59;15.73;;;5.70;;
5121;SDS011;2563;52.242;7.956;2022-11-04T08:09:25;16.03;;;6.33;;
5121;SDS011;2563;52.242;7.956;2022-11-04T08:11:50;17.93;;;5.70;;
5121;SDS011;2563;52.242;7.956;2022-11-04T08:14:15;13.37;;;5.53;;
5121;SDS011;2563;52.242;7.956;2022-11-04T08:16:41;10.90;;;5.00;;
5121;SDS011;2563;52.242;7.956;2022-11-04T08:19:06;7.90;;;4.43;;
5121;SDS011;2563;52.242;7.956;2022-11-04T08:21:32;9.83;;;4.80;;
5121;SDS011;2563;52.242;7.956;2022-11-04T08:23:58;13.40;;;5.67;;
5121;SDS011;2563;52.242;7.956;2022-11-04T08:26:23;11.10;;;4.83;;
5121;SDS011;2563;52.242;7.956;2022-11-04T08:28:49;16.50;;;5.77;;
5121;SDS011;2563;52.242;7.956;2022-11-04T08:31:17;14.60;;;4.90;;
5121;SDS011;2563;52.242;7.956;2022-11-04T08:33:42;11.20;;;5.40;;
5121;SDS011;2563;52.242;7.956;2022-11-04T08:38:39;15.83;;;6.00;;
5121;SDS011;2563;52.242;7.956;2022-11-04T08:41:05;15.03;;;5.50;;
5121;SDS011;2563;52.242;7.956;2022-11-04T08:43:32;12.53;;;5.07;;
5121;SDS011;2563;52.242;7.956;2022-11-04T08:45:58;14.90;;;5.23;;
5121;SDS011;2563;52.242;7.956;2022-11-04T08:48:24;11.80;;;5.03;;
5121;SDS011;2563;52.242;7.956;2022-11-04T08:50:50;12.33;;;4.73;;
5121;SDS011;2563;52.242;7.956;2022-11-04T08:53:17;12.40;;;5.20;;
5121;SDS011;2563;52.242;7.956;2022-11-04T08:55:43;14.37;;;5.20;;
5121;SDS011;2563;52.242;7.956;2022-11-04T08:58:08;18.33;;;5.23;;
5121;SDS011;2563;52.242;7.956;2022-11-04T09:00:34;11.20;;;5.50;;
5121;SDS011;2563;52.242;7.956;2022-11-04T09:03:00;12.60;;;5.20;;
5121;SDS011;2563;52.242;7.956;2022-11-04T09:05:25;11.13;;;4.27;;
5121;SDS011;2563;52.242;7.956;2022-11-04T09:07:51;11.27;;;5.43;;
5121;SDS011;2563;52.242;7.956;2022-11-04T09:10:16;17.90;;;5.50;;
5121;SDS011;2563;52.242;7.956;2022-11-04T09:12:42;15.73;;;6.27;;
5121;SDS011;2563;52.242;7.956;2022-11-04T09:15:08;14.60;;;5.30;;
5121;SDS011;2563;52.242;7.956;2022-11-04T09:17:34;15.70;;;5.00;;
5121;SDS011;2563;52.242;7.956;2022-11-04T09:20:00;9.93;;;4.97;;
5121;SDS011;2563;52.242;7.956;2022-11-04T09:22:25;10.57;;;5.23;;
5121;SDS011;2563;52.242;7.956;2022-11-04T09:24:51;11.63;;;5.20;;
5121;SDS011;2563;52.242;7.956;2022-11-04T09:27:16;14.17;;;4.30;;
5121;SDS011;2563;52.242;7.956;2022-11-04T09:29:41;11.03;;;4.50;;
5121;SDS011;2563;52.242;7.956;2022-11-04T09:32:07;14.83;;;4.83;;
5121;SDS011;2563;52.242;7.956;2022-11-04T09:34:33;15.17;;;5.30;;
5121;SDS011;2563;52.242;7.956;2022-11-04T09:36:59;11.17;;;4.57;;
5121;SDS011;2563;52.242;7.956;2022-11-04T09:39:24;7.83;;;4.40;;
5121;SDS011;2563;52.242;7.956;2022-11-04T09:44:43;13.20;;;4.70;;
5121;SDS011;2563;52.242;7.956;2022-11-04T09:47:14;9.93;;;4.50;;
5121;SDS011;2563;52.242;7.956;2022-11-04T09:49:41;20.63;;;4.10;;
5121;SDS011;2563;52.242;7.956;2022-11-04T09:52:14;6.20;;;3.43;;
5121;SDS011;2563;52.242;7.956;2022-11-04T09:54:53;9.83;;;4.40;;
5121;SDS011;2563;52.242;7.956;2022-11-04T09:57:26;8.60;;;4.47;;
5121;SDS011;2563;52.242;7.956;2022-11-04T09:59:51;10.93;;;4.40;;
5121;SDS011;2563;52.242;7.956;2022-11-04T10:02:40;12.33;;;5.00;;
5121;SDS011;2563;52.242;7.956;2022-11-04T10:05:08;12.17;;;4.00;;
5121;SDS011;2563;52.242;7.956;2022-11-04T10:10:59;7.27;;;4.10;;
5121;SDS011;2563;52.242;7.956;2022-11-04T10:24:15;8.37;;;3.90;;
5121;SDS011;2563;52.242;7.956;2022-11-04T10:29:16;8.97;;;4.30;;
5121;SDS011;2563;52.242;7.956;2022-11-04T10:31:49;7.57;;;4.00;;
5121;SDS011;2563;52.242;7.956;2022-11-04T10:34:26;10.60;;;4.27;;
5121;SDS011;2563;52.242;7.956;2022-11-04T10:37:12;10.50;;;4.10;;
5121;SDS011;2563;52.242;7.956;2022-11-04T10:39:44;11.43;;;4.00;;
5121;SDS011;2563;52.242;7.956;2022-11-04T10:42:11;9.90;;;4.30;;
5121;SDS011;2563;52.242;7.956;2022-11-04T10:44:40;15.33;;;3.90;;
5121;SDS011;2563;52.242;7.956;2022-11-04T10:47:25;8.43;;;4.07;;
5121;SDS011;2563;52.242;7.956;2022-11-04T10:52:47;8.43;;;4.07;;
5121;SDS011;2563;52.242;7.956;2022-11-04T10:58:02;6.90;;;3.27;;
5121;SDS011;2563;52.242;7.956;2022-11-04T11:00:34;8.70;;;3.73;;
5121;SDS011;2563;52.242;7.956;2022-11-04T11:03:01;8.07;;;3.30;;
5121;SDS011;2563;52.242;7.956;2022-11-04T11:05:27;7.47;;;3.30;;
5121;SDS011;2563;52.242;7.956;2022-11-04T11:07:54;5.97;;;3.10;;
5121;SDS011;2563;52.242;7.956;2022-11-04T11:10:28;9.13;;;3.53;;
5121;SDS011;2563;52.242;7.956;2022-11-04T11:13:00;9.17;;;3.30;;
5121;SDS011;2563;52.242;7.956;2022-11-04T11:18:20;8.90;;;3.40;;
5121;SDS011;2563;52.242;7.956;2022-11-04T11:20:48;9.30;;;3.23;;
5121;SDS011;2563;52.242;7.956;2022-11-04T11:23:32;5.57;;;3.00;;
5121;SDS011;2563;52.242;7.956;2022-11-04T11:26:08;6.60;;;3.47;;
5121;SDS011;2563;52.242;7.956;2022-11-04T11:28:37;10.87;;;3.90;;
5121;SDS011;2563;52.242;7.956;2022-11-04T11:31:08;8.70;;;3.50;;
5121;SDS011;2563;52.242;7.956;2022-11-04T11:34:03;8.07;;;3.20;;
5121;SDS011;2563;52.242;7.956;2022-11-04T11:36:39;7.73;;;4.10;;
5121;SDS011;2563;52.242;7.956;2022-11-04T11:41:55;9.83;;;3.30;;
5121;SDS011;2563;52.242;7.956;2022-11-04T11:46:52;9.20;;;3.10;;
5121;SDS011;2563;52.242;7.956;2022-11-04T11:49:22;6.70;;;3.17;;
5121;SDS011;2563;52.242;7.956;2022-11-04T11:51:53;10.03;;;2.73;;
5121;SDS011;2563;52.242;7.956;2022-11-04T11:56:58;5.80;;;2.70;;
5121;SDS011;2563;52.242;7.956;2022-11-04T12:04:55;13.77;;;3.20;;
5121;SDS011;2563;52.242;7.956;2022-11-04T12:10:06;9.67;;;2.63;;
5121;SDS011;2563;52.242;7.956;2022-11-04T12:15:22;7.20;;;2.57;;
5121;SDS011;2563;52.242;7.956;2022-11-04T12:17:57;6.53;;;2.70;;
5121;SDS011;2563;52.242;7.956;2022-11-04T12:23:36;12.30;;;3.20;;
5121;SDS011;2563;52.242;7.956;2022-11-04T12:26:19;11.07;;;2.77;;
5121;SDS011;2563;52.242;7.956;2022-11-04T12:32:17;4.90;;;2.50;;
5121;SDS011;2563;52.242;7.956;2022-11-04T12:43:38;7.17;;;2.90;;
5121;SDS011;2563;52.242;7.956;2022-11-04T12:46:19;6.13;;;3.03;;
5121;SDS011;2563;52.242;7.956;2022-11-04T13:00:19;4.70;;;2.30;;
5121;SDS011;2563;52.242;7.956;2022-11-04T13:03:01;4.73;;;2.30;;
5121;SDS011;2563;52.242;7.956;2022-11-04T13:10:42;8.37;;;2.87;;
5121;SDS011;2563;52.242;7.956;2022-11-04T13:13:32;6.17;;;2.70;;
5121;SDS011;2563;52.242;7.956;2022-11-04T13:16:05;5.17;;;2.40;;
5121;SDS011;2563;52.242;7.956;2022-11-04T13:18:35;12.00;;;3.00;;
5121;SDS011;2563;52.242;7.956;2022-11-04T13:21:06;8.37;;;2.60;;
5121;SDS011;2563;52.242;7.956;2022-11-04T13:23:40;7.97;;;3.10;;
5121;SDS011;2563;52.242;7.956;2022-11-04T13:26:14;6.00;;;3.10;;
5121;SDS011;2563;52.242;7.956;2022-11-04T13:28:41;7.53;;;2.93;;
5121;SDS011;2563;52.242;7.956;2022-11-04T13:31:10;6.70;;;3.00;;
5121;SDS011;2563;52.242;7.956;2022-11-04T13:36:43;7.40;;;2.60;;
5121;SDS011;2563;52.242;7.956;2022-11-04T13:44:48;7.93;;;2.60;;
5121;SDS011;2563;52.242;7.956;2022-11-04T13:47:17;7.57;;;3.00;;
5121;SDS011;2563;52.242;7.956;2022-11-04T13:49:51;9.23;;;2.90;;
5121;SDS011;2563;52.242;7.956;2022-11-04T13:52:23;9.00;;;2.67;;
5121;SDS011;2563;52.242;7.956;2022-11-04T13:55:16;9.10;;;3.40;;
5121;SDS011;2563;52.242;7.956;2022-11-04T14:00:22;10.23;;;3.00;;
5121;SDS011;2563;52.242;7.956;2022-11-04T14:18:43;6.47;;;2.30;;
5121;SDS011;2563;52.242;7.956;2022-11-04T14:23:58;7.97;;;3.03;;
5121;SDS011;2563;52.242;7.956;2022-11-04T14:26:25;6.10;;;2.97;;
5121;SDS011;2563;52.242;7.956;2022-11-04T14:29:06;9.83;;;3.30;;
5121;SDS011;2563;52.242;7.956;2022-11-04T14:31:38;5.37;;;2.80;;
5121;SDS011;2563;52.242;7.956;2022-11-04T14:34:05;9.00;;;2.70;;
5121;SDS011;2563;52.242;7.956;2022-11-04T14:41:48;9.20;;;3.47;;
5121;SDS011;2563;52.242;7.956;2022-11-04T14:44:19;6.10;;;3.00;;
5121;SDS011;2563;52.242;7.956;2022-11-04T14:46:52;5.87;;;2.97;;
5121;SDS011;2563;52.242;7.956;2022-11-04T14:52:04;5.07;;;2.77;;
5121;SDS011;2563;52.242;7.956;2022-11-04T14:54:38;5.13;;;3.07;;
5121;SDS011;2563;52.242;7.956;2022-11-04T14:57:17;6.00;;;2.93;;
5121;SDS011;2563;52.242;7.956;2022-11-04T14:59:45;7.30;;;3.27;;
5121;SDS011;2563;52.242;7.956;2022-11-04T15:02:18;8.27;;;3.17;;
5121;SDS011;2563;52.242;7.956;2022-11-04T15:04:48;9.03;;;3.50;;
5121;SDS011;2563;52.242;7.956;2022-11-04T15:10:25;6.87;;;2.60;;
5121;SDS011;2563;52.242;7.956;2022-11-04T15:12:51;6.87;;;3.03;;
5121;SDS011;2563;52.242;7.956;2022-11-04T15:17:59;9.00;;;3.30;;
5121;SDS011;2563;52.242;7.956;2022-11-04T15:20:34;25.00;;;3.53;;
5121;SDS011;2563;52.242;7.956;2022-11-04T15:23:05;5.47;;;2.87;;
5121;SDS011;2563;52.242;7.956;2022-11-04T15:25:34;5.37;;;2.67;;
5121;SDS011;2563;52.242;7.956;2022-11-04T15:27:59;15.17;;;3.80;;
5121;SDS011;2563;52.242;7.956;2022-11-04T15:30:26;11.00;;;3.20;;
5121;SDS011;2563;52.242;7.956;2022-11-04T15:33:00;5.90;;;3.20;;
5121;SDS011;2563;52.242;7.956;2022-11-04T15:35:27;5.03;;;3.43;;
5121;SDS011;2563;52.242;7.956;2022-11-04T15:37:54;7.43;;;3.20;;
5121;SDS011;2563;52.242;7.956;2022-11-04T15:40:21;7.07;;;3.47;;
5121;SDS011;2563;52.242;7.956;2022-11-04T15:42:50;7.70;;;3.40;;
5121;SDS011;2563;52.242;7.956;2022-11-04T15:53:22;11.73;;;4.00;;
5121;SDS011;2563;52.242;7.956;2022-11-04T15:55:47;10.53;;;3.80;;
5121;SDS011;2563;52.242;7.956;2022-11-04T15:58:13;11.40;;;3.90;;
5121;SDS011;2563;52.242;7.956;2022-11-04T16:00:39;8.90;;;3.57;;
5121;SDS011;2563;52.242;7.956;2022-11-04T16:03:05;8.20;;;4.20;;
5121;SDS011;2563;52.242;7.956;2022-11-04T16:05:43;11.73;;;4.10;;
5121;SDS011;2563;52.242;7.956;2022-11-04T16:08:26;14.40;;;4.40;;
5121;SDS011;2563;52.242;7.956;2022-11-04T16:13:37;10.30;;;3.97;;
5121;SDS011;2563;52.242;7.956;2022-11-04T16:21:26;11.37;;;4.23;;
5121;SDS011;2563;52.242;7.956;2022-11-04T16:24:00;10.40;;;4.20;;
5121;SDS011;2563;52.242;7.956;2022-11-04T16:26:29;8.80;;;5.10;;
5121;SDS011;2563;52.242;7.956;2022-11-04T16:29:05;8.37;;;5.17;;
5121;SDS011;2563;52.242;7.956;2022-11-04T16:31:33;9.07;;;4.87;;
5121;SDS011;2563;52.242;7.956;2022-11-04T16:34:00;11.73;;;4.60;;
5121;SDS011;2563;52.242;7.956;2022-11-04T16:36:26;9.70;;;4.57;;
5121;SDS011;2563;52.242;7.956;2022-11-04T16:41:17;15.50;;;6.83;;
5121;SDS011;2563;52.242;7.956;2022-11-04T16:43:42;11.03;;;5.97;;
5121;SDS011;2563;52.242;7.956;2022-11-04T16:46:07;7.13;;;4.47;;
5121;SDS011;2563;52.242;7.956;2022-11-04T16:48:35;11.40;;;4.77;;
5121;SDS011;2563;52.242;7.956;2022-11-04T16:51:00;11.50;;;6.60;;
5121;SDS011;2563;52.242;7.956;2022-11-04T16:53:26;13.63;;;5.93;;
5121;SDS011;2563;52.242;7.956;2022-11-04T16:55:51;13.03;;;5.40;;
5121;SDS011;2563;52.242;7.956;2022-11-04T16:58:18;17.03;;;7.30;;
5121;SDS011;2563;52.242;7.956;2022-11-04T17:00:44;15.43;;;5.87;;
5121;SDS011;2563;52.242;7.956;2022-11-04T17:03:16;13.63;;;5.00;;
5121;SDS011;2563;52.242;7.956;2022-11-04T17:05:47;12.77;;;5.60;;
5121;SDS011;2563;52.242;7.956;2022-11-04T17:08:13;12.40;;;5.30;;
5121;SDS011;2563;52.242;7.956;2022-11-04T17:10:39;17.57;;;5.40;;
5121;SDS011;2563;52.242;7.956;2022-11-04T17:13:04;10.70;;;5.60;;
5121;SDS011;2563;52.242;7.956;2022-11-04T17:15:29;10.60;;;5.40;;
5121;SDS011;2563;52.242;7.956;2022-11-04T17:17:55;12.97;;;5.97;;
5121;SDS011;2563;52.242;7.956;2022-11-04T17:20:20;10.00;;;5.30;;
5121;SDS011;2563;52.242;7.956;2022-11-04T17:22:45;13.43;;;5.20;;
5121;SDS011;2563;52.242;7.956;2022-11-04T17:25:16;11.13;;;5.30;;
5121;SDS011;2563;52.242;7.956;2022-11-04T17:27:46;12.03;;;6.27;;
5121;SDS011;2563;52.242;7.956;2022-11-04T17:30:12;16.23;;;6.70;;
5121;SDS011;2563;52.242;7.956;2022-11-04T17:32:39;10.00;;;6.30;;
5121;SDS011;2563;52.242;7.956;2022-11-04T17:35:05;12.13;;;6.57;;
5121;SDS011;2563;52.242;7.956;2022-11-04T17:37:31;22.00;;;9.23;;
5121;SDS011;2563;52.242;7.956;2022-11-04T17:39:56;10.67;;;7.07;;
5121;SDS011;2563;52.242;7.956;2022-11-04T17:42:21;18.87;;;8.20;;
5121;SDS011;2563;52.242;7.956;2022-11-04T17:45:05;12.63;;;7.03;;
5121;SDS011;2563;52.242;7.956;2022-11-04T17:47:34;16.57;;;7.83;;
5121;SDS011;2563;52.242;7.956;2022-11-04T17:50:00;15.50;;;7.97;;
5121;SDS011;2563;52.242;7.956;2022-11-04T17:52:27;19.20;;;10.00;;
5121;SDS011;2563;52.242;7.956;2022-11-04T17:54:52;17.13;;;8.50;;
5121;SDS011;2563;52.242;7.956;2022-11-04T17:57:17;17.07;;;8.23;;
5121;SDS011;2563;52.242;7.956;2022-11-04T17:59:42;20.40;;;8.27;;
5121;SDS011;2563;52.242;7.956;2022-11-04T18:02:08;11.10;;;6.90;;
5121;SDS011;2563;52.242;7.956;2022-11-04T18:04:33;12.80;;;5.87;;
5121;SDS011;2563;52.242;7.956;2022-11-04T18:06:59;14.67;;;6.77;;
5121;SDS011;2563;52.242;7.956;2022-11-04T18:09:24;12.30;;;6.00;;
5121;SDS011;2563;52.242;7.956;2022-11-04T18:11:50;14.80;;;6.97;;
5121;SDS011;2563;52.242;7.956;2022-11-04T18:14:34;19.27;;;8.10;;
5121;SDS011;2563;52.242;7.956;2022-11-04T18:16:59;22.60;;;10.73;;